Time;durP1;ratioP1;P1;durP2;ratioP2;P2;SDS_P1;SDS_P2;PMS_P1;PMS_P2;Temp;Humidity;BMP_temperature;BMP_pressure;BME280_temperature;BME280_humidity;BME280_pressure;Samples;Min_cycle;Max_cycle;Signal;HPM_P1;HPM_P2
2024/04/09 00:00:35;;;;;;;12.57;2.40;;;;;;;;;;5419005;26;20072;-58
2024/04/09 00:03:01;;;;;;;5.90;2.10;;;;;;;;;;5418424;26;19996;-57
2024/04/09 00:05:31;;;;;;;9.32;2.90;;;;;;;;;;5418849;26;20003;-57
2024/04/09 00:07:58;;;;;;;8.30;2.85;;;;;;;;;;5418780;26;20006;-57
2024/04/09 00:10:24;;;;;;;7.18;3.03;;;;;;;;;;5418906;26;20007;-57
2024/04/09 00:12:52;;;;;;;8.85;2.15;;;;;;;;;;5419214;26;20006;-57
2024/04/09 00:15:18;;;;;;;5.57;1.98;;;;;;;;;;5418830;26;20056;-57
2024/04/09 00:17:55;;;;;;;7.25;2.38;;;;;;;;;;5419032;26;20005;-57
2024/04/09 00:20:23;;;;;;;6.90;1.55;;;;;;;;;;5418474;26;19995;-57
2024/04/09 00:22:49;;;;;;;10.30;2.45;;;;;;;;;;5418248;26;19996;-57
2024/04/09 00:25:18;;;;;;;6.90;2.45;;;;;;;;;;5418365;26;20279;-57
2024/04/09 00:27:45;;;;;;;5.38;2.13;;;;;;;;;;5418131;26;20437;-57
2024/04/09 00:30:11;;;;;;;6.63;2.08;;;;;;;;;;5418522;26;20408;-57
2024/04/09 00:32:37;;;;;;;7.05;2.05;;;;;;;;;;5418150;26;20004;-57
2024/04/09 00:35:03;;;;;;;3.45;1.73;;;;;;;;;;5418078;26;20007;-57
2024/04/09 00:37:29;;;;;;;5.80;2.22;;;;;;;;;;5418007;26;20007;-57
2024/04/09 00:39:55;;;;;;;3.53;1.70;;;;;;;;;;5418160;26;20007;-57
2024/04/09 00:42:21;;;;;;;5.75;1.90;;;;;;;;;;5418030;26;20461;-57
2024/04/09 00:44:48;;;;;;;7.05;3.03;;;;;;;;;;5417942;26;20065;-57
2024/04/09 00:47:16;;;;;;;5.43;2.15;;;;;;;;;;5417751;26;19995;-57
2024/04/09 00:49:42;;;;;;;15.65;3.03;;;;;;;;;;5417905;26;19992;-57
2024/04/09 00:52:08;;;;;;;10.07;1.58;;;;;;;;;;5418023;26;19992;-57
2024/04/09 00:54:36;;;;;;;5.15;1.92;;;;;;;;;;5417876;26;20068;-57
2024/04/09 00:57:04;;;;;;;5.07;2.35;;;;;;;;;;5418010;26;20002;-57
2024/04/09 00:59:32;;;;;;;5.20;1.73;;;;;;;;;;5417087;26;20003;-57
2024/04/09 01:01:58;;;;;;;6.68;2.03;;;;;;;;;;5417160;26;20003;-57
2024/04/09 01:04:24;;;;;;;9.43;1.92;;;;;;;;;;5417786;26;20003;-57
2024/04/09 01:06:51;;;;;;;5.45;1.73;;;;;;;;;;5418158;26;20003;-57
2024/04/09 01:09:17;;;;;;;13.77;1.75;;;;;;;;;;5418198;26;20076;-57
2024/04/09 01:11:43;;;;;;;6.55;1.63;;;;;;;;;;5417884;26;20007;-57
2024/04/09 01:14:08;;;;;;;5.57;2.20;;;;;;;;;;5417882;26;19996;-57
2024/04/09 01:16:34;;;;;;;4.65;2.10;;;;;;;;;;5418067;26;19991;-57
2024/04/09 01:19:00;;;;;;;10.07;1.95;;;;;;;;;;5417774;26;20069;-56
2024/04/09 01:21:26;;;;;;;5.68;2.05;;;;;;;;;;5417404;26;20453;-57
2024/04/09 01:23:53;;;;;;;3.67;1.77;;;;;;;;;;5417301;26;20418;-57
2024/04/09 01:26:19;;;;;;;2.83;0.98;;;;;;;;;;5417303;26;20011;-57
2024/04/09 01:28:46;;;;;;;9.73;2.47;;;;;;;;;;5417742;26;19999;-57
2024/04/09 01:31:15;;;;;;;4.95;1.77;;;;;;;;;;5417102;26;20002;-57
2024/04/09 01:33:41;;;;;;;9.00;1.40;;;;;;;;;;5417131;26;20482;-57
2024/04/09 01:36:10;;;;;;;7.22;1.95;;;;;;;;;;5417273;26;20063;-58
2024/04/09 01:38:36;;;;;;;6.35;1.90;;;;;;;;;;5416998;26;19995;-57
2024/04/09 01:41:02;;;;;;;7.15;2.05;;;;;;;;;;5417052;26;19996;-58
2024/04/09 01:43:28;;;;;;;4.50;1.10;;;;;;;;;;5416785;26;20004;-57
2024/04/09 01:45:54;;;;;;;7.18;1.92;;;;;;;;;;5415517;26;20452;-57
2024/04/09 01:48:22;;;;;;;3.97;1.73;;;;;;;;;;5416934;26;20007;-57
2024/04/09 01:50:47;;;;;;;7.88;2.17;;;;;;;;;;5416976;26;20313;-57
2024/04/09 01:53:13;;;;;;;5.95;1.92;;;;;;;;;;5416756;26;20003;-57
2024/04/09 01:55:40;;;;;;;6.38;1.55;;;;;;;;;;5417007;26;20004;-57
2024/04/09 01:58:07;;;;;;;5.63;2.08;;;;;;;;;;5416779;26;20358;-57
2024/04/09 02:00:35;;;;;;;4.82;1.40;;;;;;;;;;5416607;26;19999;-57
2024/04/09 02:03:01;;;;;;;9.02;2.28;;;;;;;;;;5416362;26;19992;-58
2024/04/09 02:05:27;;;;;;;3.67;2.17;;;;;;;;;;5416605;26;19995;-57
2024/04/09 02:07:53;;;;;;;4.75;2.15;;;;;;;;;;5416706;26;20006;-57
2024/04/09 02:10:19;;;;;;;7.03;1.88;;;;;;;;;;5416558;26;20437;-57
2024/04/09 02:12:45;;;;;;;7.97;2.22;;;;;;;;;;5419355;26;19996;-57
2024/04/09 02:15:12;;;;;;;8.30;1.58;;;;;;;;;;5419969;26;20006;-57
2024/04/09 02:17:38;;;;;;;6.15;1.65;;;;;;;;;;5420061;26;20003;-57
2024/04/09 02:20:09;;;;;;;5.75;2.28;;;;;;;;;;5420351;26;20432;-57
2024/04/09 02:22:35;;;;;;;4.85;1.92;;;;;;;;;;5420304;26;20010;-57
2024/04/09 02:25:01;;;;;;;4.25;1.48;;;;;;;;;;5420182;26;19999;-57
2024/04/09 02:27:27;;;;;;;4.10;2.03;;;;;;;;;;5420504;26;20005;-57
2024/04/09 02:29:56;;;;;;;6.82;2.10;;;;;;;;;;5419956;26;20010;-56
2024/04/09 02:32:23;;;;;;;11.38;1.75;;;;;;;;;;5420070;26;19999;-57
2024/04/09 02:34:49;;;;;;;6.03;1.98;;;;;;;;;;5419744;26;20003;-57
2024/04/09 02:37:15;;;;;;;8.50;2.83;;;;;;;;;;5419993;26;20071;-57
2024/04/09 02:39:41;;;;;;;6.70;2.50;;;;;;;;;;5420360;26;19998;-57
2024/04/09 02:42:13;;;;;;;4.05;1.83;;;;;;;;;;5419727;26;19991;-56
2024/04/09 02:44:38;;;;;;;8.20;1.83;;;;;;;;;;5420049;26;20004;-57
2024/04/09 02:47:05;;;;;;;10.98;2.30;;;;;;;;;;5420269;26;20364;-57
2024/04/09 02:49:30;;;;;;;4.38;1.55;;;;;;;;;;5419909;26;20032;-57
2024/04/09 02:51:56;;;;;;;12.05;2.35;;;;;;;;;;5419857;26;19992;-57
2024/04/09 02:54:22;;;;;;;4.00;1.73;;;;;;;;;;5419542;26;19995;-57
2024/04/09 02:56:50;;;;;;;10.15;2.80;;;;;;;;;;5419755;26;20076;-57
2024/04/09 02:59:16;;;;;;;5.60;2.55;;;;;;;;;;5419462;26;20005;-57
2024/04/09 03:01:42;;;;;;;6.53;2.90;;;;;;;;;;5419800;26;19995;-57
2024/04/09 03:04:08;;;;;;;7.75;2.65;;;;;;;;;;5419725;26;19996;-57
2024/04/09 03:06:34;;;;;;;6.80;2.85;;;;;;;;;;5419692;26;19996;-57
2024/04/09 03:09:01;;;;;;;6.65;2.47;;;;;;;;;;5419920;26;20006;-57
2024/04/09 03:11:27;;;;;;;4.30;1.65;;;;;;;;;;5419576;26;20070;-57
2024/04/09 03:13:53;;;;;;;4.45;2.03;;;;;;;;;;5419755;26;20004;-57
2024/04/09 03:16:22;;;;;;;12.32;2.60;;;;;;;;;;5419862;26;19992;-57
2024/04/09 03:18:49;;;;;;;5.80;2.33;;;;;;;;;;5419247;26;20006;-56
2024/04/09 03:21:15;;;;;;;6.10;2.60;;;;;;;;;;5419693;26;20003;-57
2024/04/09 03:23:42;;;;;;;8.75;2.60;;;;;;;;;;5418783;26;19992;-57
2024/04/09 03:26:11;;;;;;;11.52;2.50;;;;;;;;;;5419163;26;20395;-57
2024/04/09 03:28:38;;;;;;;12.80;3.50;;;;;;;;;;5419457;26;19992;-57
2024/04/09 03:31:04;;;;;;;11.23;2.72;;;;;;;;;;5419018;26;20007;-57
2024/04/09 03:33:30;;;;;;;9.60;2.30;;;;;;;;;;5419067;26;20006;-57
2024/04/09 03:35:57;;;;;;;7.88;3.05;;;;;;;;;;5419074;26;20452;-57
2024/04/09 03:38:23;;;;;;;11.13;3.58;;;;;;;;;;5419212;26;19995;-57
2024/04/09 03:40:56;;;;;;;7.63;2.53;;;;;;;;;;5419437;26;20372;-56
2024/04/09 03:43:22;;;;;;;15.18;4.53;;;;;;;;;;5418769;26;20310;-57
2024/04/09 03:46:07;;;;;;;7.78;2.53;;;;;;;;;;5419140;26;20037;-57
2024/04/09 03:48:34;;;;;;;16.10;3.05;;;;;;;;;;5418879;26;20031;-57
2024/04/09 03:51:00;;;;;;;5.88;2.92;;;;;;;;;;5418714;26;19995;-57
2024/04/09 03:53:26;;;;;;;5.65;2.40;;;;;;;;;;5418805;26;20077;-57
2024/04/09 03:55:56;;;;;;;7.13;3.33;;;;;;;;;;5418599;26;20000;-58
2024/04/09 03:58:22;;;;;;;12.32;3.58;;;;;;;;;;5418701;26;20433;-57
2024/04/09 04:00:57;;;;;;;6.30;2.70;;;;;;;;;;5418636;26;20008;-57
2024/04/09 04:03:23;;;;;;;7.97;3.05;;;;;;;;;;5418852;26;20010;-57
2024/04/09 04:05:55;;;;;;;7.88;3.05;;;;;;;;;;5419378;26;20371;-57
2024/04/09 04:08:25;;;;;;;8.85;2.88;;;;;;;;;;5419654;26;19991;-57
2024/04/09 04:10:55;;;;;;;10.55;3.75;;;;;;;;;;5418862;26;20066;-57
2024/04/09 04:13:23;;;;;;;8.40;3.05;;;;;;;;;;5419291;26;20375;-57
2024/04/09 04:16:05;;;;;;;7.45;2.75;;;;;;;;;;5418535;26;19991;-56
2024/04/09 04:18:32;;;;;;;9.32;3.53;;;;;;;;;;5418580;26;19992;-58
2024/04/09 04:20:58;;;;;;;9.20;3.47;;;;;;;;;;5418419;26;19992;-57
2024/04/09 04:23:24;;;;;;;5.97;2.38;;;;;;;;;;5418236;26;20322;-59
2024/04/09 04:25:54;;;;;;;9.63;3.05;;;;;;;;;;5418340;26;20002;-58
2024/04/09 04:28:20;;;;;;;9.17;3.20;;;;;;;;;;5418702;26;20065;-59
2024/04/09 04:30:46;;;;;;;11.45;3.25;;;;;;;;;;5418079;26;20230;-59
2024/04/09 04:33:12;;;;;;;7.78;3.22;;;;;;;;;;5418349;26;19998;-59
2024/04/09 04:35:37;;;;;;;10.48;3.42;;;;;;;;;;5417161;26;19999;-58
2024/04/09 04:38:03;;;;;;;9.30;3.08;;;;;;;;;;5418146;26;19995;-59
2024/04/09 04:40:29;;;;;;;5.78;3.17;;;;;;;;;;5418179;26;19992;-59
2024/04/09 04:42:55;;;;;;;14.73;3.10;;;;;;;;;;5418353;26;20466;-58
2024/04/09 04:45:21;;;;;;;11.35;2.97;;;;;;;;;;5417864;26;19995;-59
2024/04/09 04:47:47;;;;;;;9.63;3.50;;;;;;;;;;5418136;26;19995;-56
2024/04/09 04:50:13;;;;;;;13.13;3.38;;;;;;;;;;5418281;26;20006;-58
2024/04/09 04:52:39;;;;;;;14.75;3.65;;;;;;;;;;5417783;26;20003;-57
2024/04/09 04:55:06;;;;;;;8.55;2.88;;;;;;;;;;5417754;26;20115;-59
2024/04/09 04:57:32;;;;;;;9.32;3.53;;;;;;;;;;5417601;26;20330;-59
2024/04/09 04:59:57;;;;;;;8.02;2.70;;;;;;;;;;5417970;26;20010;-59
2024/04/09 05:02:23;;;;;;;5.30;1.95;;;;;;;;;;5417692;26;20391;-58
2024/04/09 05:04:53;;;;;;;5.57;2.58;;;;;;;;;;5417899;26;20495;-58
2024/04/09 05:07:19;;;;;;;9.77;2.63;;;;;;;;;;5417868;26;20002;-58
2024/04/09 05:09:45;;;;;;;6.65;3.03;;;;;;;;;;5418428;26;20028;-59
2024/04/09 05:12:11;;;;;;;12.05;2.28;;;;;;;;;;5418012;26;19996;-59
2024/04/09 05:14:37;;;;;;;7.72;2.25;;;;;;;;;;5417329;26;19992;-59
2024/04/09 05:17:04;;;;;;;6.82;2.50;;;;;;;;;;5417548;26;20059;-59
2024/04/09 05:19:29;;;;;;;4.70;2.05;;;;;;;;;;5418001;26;20027;-59
2024/04/09 05:21:55;;;;;;;13.38;3.17;;;;;;;;;;5417447;26;20000;-59
2024/04/09 05:24:23;;;;;;;6.13;2.35;;;;;;;;;;5417417;26;20005;-59
2024/04/09 05:26:48;;;;;;;5.53;1.98;;;;;;;;;;5417144;26;20473;-58
2024/04/09 05:29:14;;;;;;;5.47;2.40;;;;;;;;;;5418167;26;19996;-59
2024/04/09 05:31:41;;;;;;;5.57;1.92;;;;;;;;;;5417662;26;20007;-58
2024/04/09 05:34:07;;;;;;;9.07;2.97;;;;;;;;;;5417444;26;20028;-59
2024/04/09 05:36:34;;;;;;;7.72;2.42;;;;;;;;;;5417245;26;19992;-59
2024/04/09 05:39:00;;;;;;;5.32;2.40;;;;;;;;;;5417290;26;20043;-59
2024/04/09 05:41:25;;;;;;;9.27;1.75;;;;;;;;;;5417114;26;20018;-59
2024/04/09 05:43:51;;;;;;;5.55;2.17;;;;;;;;;;5417272;26;19991;-59
2024/04/09 05:46:18;;;;;;;9.82;2.28;;;;;;;;;;5419705;26;19991;-59
2024/04/09 05:48:44;;;;;;;8.52;1.83;;;;;;;;;;5420990;26;20329;-59
2024/04/09 05:51:10;;;;;;;5.10;2.13;;;;;;;;;;5420926;26;19995;-59
2024/04/09 05:53:36;;;;;;;5.18;1.58;;;;;;;;;;5421015;26;20006;-59
2024/04/09 05:56:02;;;;;;;5.38;2.00;;;;;;;;;;5420874;26;20310;-59
2024/04/09 05:58:29;;;;;;;7.90;1.88;;;;;;;;;;5420787;26;20057;-59
2024/04/09 06:00:56;;;;;;;7.82;1.90;;;;;;;;;;5420276;26;20015;-59
2024/04/09 06:03:22;;;;;;;3.92;1.73;;;;;;;;;;5419663;26;20003;-59
2024/04/09 06:05:48;;;;;;;3.50;1.42;;;;;;;;;;5420747;26;20007;-59
2024/04/09 06:08:14;;;;;;;4.32;1.30;;;;;;;;;;5420538;26;20010;-59
2024/04/09 06:10:40;;;;;;;5.30;1.60;;;;;;;;;;5420480;26;20000;-59
2024/04/09 06:13:06;;;;;;;3.20;1.52;;;;;;;;;;5420204;26;19995;-59
2024/04/09 06:15:32;;;;;;;2.58;1.13;;;;;;;;;;5420027;26;20003;-59
2024/04/09 06:17:58;;;;;;;2.25;0.77;;;;;;;;;;5418732;26;20000;-59
2024/04/09 06:20:24;;;;;;;2.30;0.68;;;;;;;;;;5418060;26;19996;-59
2024/04/09 06:22:50;;;;;;;2.63;0.98;;;;;;;;;;5418632;26;20403;-59
2024/04/09 06:25:16;;;;;;;2.55;1.08;;;;;;;;;;5419519;26;20086;-59
2024/04/09 06:27:42;;;;;;;7.05;1.58;;;;;;;;;;5419219;26;20293;-59
2024/04/09 06:30:08;;;;;;;6.32;1.23;;;;;;;;;;5419062;26;20000;-59
2024/04/09 06:32:35;;;;;;;5.43;1.23;;;;;;;;;;5418049;26;20016;-59
2024/04/09 06:35:01;;;;;;;3.53;1.30;;;;;;;;;;5419587;26;20085;-59
2024/04/09 06:37:29;;;;;;;4.82;1.17;;;;;;;;;;5419348;26;19999;-59
2024/04/09 06:39:55;;;;;;;5.40;1.67;;;;;;;;;;5419580;26;20039;-59
2024/04/09 06:42:21;;;;;;;3.55;1.23;;;;;;;;;;5419299;26;19995;-59
2024/04/09 06:44:47;;;;;;;2.10;0.95;;;;;;;;;;5419235;26;20314;-59
2024/04/09 06:47:13;;;;;;;2.58;1.05;;;;;;;;;;5418212;26;19996;-58
2024/04/09 06:49:42;;;;;;;4.68;1.10;;;;;;;;;;5419972;26;20000;-58
2024/04/09 06:52:08;;;;;;;3.67;1.13;;;;;;;;;;5419784;26;20345;-58
2024/04/09 06:54:34;;;;;;;2.80;1.15;;;;;;;;;;5419485;26;20000;-59
2024/04/09 06:57:00;;;;;;;2.72;1.02;;;;;;;;;;5419262;26;19998;-57
2024/04/09 06:59:26;;;;;;;4.32;1.35;;;;;;;;;;5420348;26;19995;-59
2024/04/09 07:01:52;;;;;;;2.55;1.00;;;;;;;;;;5419919;26;19995;-59
2024/04/09 07:04:18;;;;;;;2.75;1.08;;;;;;;;;;5419377;26;20071;-59
2024/04/09 07:06:44;;;;;;;1.63;1.10;;;;;;;;;;5419595;26;20006;-59
2024/04/09 07:09:16;;;;;;;3.35;1.08;;;;;;;;;;5419975;26;20018;-59
2024/04/09 07:11:42;;;;;;;6.05;1.00;;;;;;;;;;5419510;26;20008;-59
2024/04/09 07:14:08;;;;;;;2.20;0.80;;;;;;;;;;5419562;26;20069;-59
2024/04/09 07:16:34;;;;;;;2.90;1.40;;;;;;;;;;5419530;26;19999;-59
2024/04/09 07:19:00;;;;;;;5.43;0.70;;;;;;;;;;5420070;26;20011;-59
2024/04/09 07:21:26;;;;;;;11.65;1.55;;;;;;;;;;5419696;26;20009;-59
2024/04/09 07:23:52;;;;;;;2.10;0.95;;;;;;;;;;5419213;26;19999;-59
2024/04/09 07:26:18;;;;;;;3.03;1.05;;;;;;;;;;5419552;26;20071;-59
2024/04/09 07:28:45;;;;;;;4.03;1.27;;;;;;;;;;5419583;26;20422;-59
2024/04/09 07:31:14;;;;;;;5.47;0.88;;;;;;;;;;5419527;26;20003;-58
2024/04/09 07:33:40;;;;;;;3.78;1.08;;;;;;;;;;5419230;26;20310;-59
2024/04/09 07:36:06;;;;;;;7.60;1.42;;;;;;;;;;5419394;26;19995;-59
2024/04/09 07:38:32;;;;;;;3.28;1.20;;;;;;;;;;5419496;26;20068;-59
2024/04/09 07:40:58;;;;;;;3.70;1.23;;;;;;;;;;5419159;26;19996;-59
2024/04/09 07:43:24;;;;;;;3.35;1.27;;;;;;;;;;5418912;26;20006;-58
2024/04/09 07:45:53;;;;;;;2.85;1.08;;;;;;;;;;5418923;26;20391;-59
2024/04/09 07:48:19;;;;;;;3.97;1.10;;;;;;;;;;5419006;26;19996;-59
2024/04/09 07:50:45;;;;;;;3.92;1.45;;;;;;;;;;5418797;26;19992;-59
2024/04/09 07:53:11;;;;;;;3.15;1.13;;;;;;;;;;5419072;26;20329;-59
2024/04/09 07:55:37;;;;;;;2.35;1.10;;;;;;;;;;5419031;26;19999;-59
2024/04/09 07:58:04;;;;;;;2.28;1.20;;;;;;;;;;5418902;26;20009;-58
2024/04/09 08:00:30;;;;;;;8.07;1.85;;;;;;;;;;5419178;26;19999;-59
2024/04/09 08:02:56;;;;;;;1.40;0.70;;;;;;;;;;5418813;26;19999;-58
2024/04/09 08:05:23;;;;;;;2.28;0.90;;;;;;;;;;5418627;26;20006;-59
2024/04/09 08:07:49;;;;;;;0.52;0.30;;;;;;;;;;5418691;26;20306;-59
2024/04/09 08:10:19;;;;;;;1.42;0.80;;;;;;;;;;5418201;26;19996;-58
2024/04/09 08:12:54;;;;;;;2.03;0.82;;;;;;;;;;5419634;26;20426;-58
2024/04/09 08:15:20;;;;;;;0.60;0.28;;;;;;;;;;5418878;26;20064;-58
2024/04/09 08:17:50;;;;;;;0.50;0.22;;;;;;;;;;5418636;26;20002;-58
2024/04/09 08:20:19;;;;;;;0.40;0.20;;;;;;;;;;5418923;26;20007;-58
2024/04/09 08:22:49;;;;;;;1.25;0.40;;;;;;;;;;5418515;26;20006;-58
2024/04/09 08:25:15;;;;;;;5.07;0.45;;;;;;;;;;5418391;26;19995;-59
2024/04/09 08:27:41;;;;;;;0.75;0.30;;;;;;;;;;5418554;26;20005;-58
2024/04/09 08:30:08;;;;;;;0.85;0.20;;;;;;;;;;5418672;26;19995;-58
2024/04/09 08:32:34;;;;;;;0.43;0.20;;;;;;;;;;5418678;26;20011;-58
2024/04/09 08:35:01;;;;;;;1.05;0.30;;;;;;;;;;5418301;26;20341;-56
2024/04/09 08:37:27;;;;;;;1.25;0.30;;;;;;;;;;5418806;26;19991;-57
2024/04/09 08:39:54;;;;;;;0.10;0.10;;;;;;;;;;5418550;26;20059;-58
2024/04/09 08:42:20;;;;;;;0.47;0.43;;;;;;;;;;5418257;26;19992;-58
2024/04/09 08:44:49;;;;;;;2.53;0.68;;;;;;;;;;5418045;26;20007;-58
2024/04/09 08:47:17;;;;;;;0.20;0.10;;;;;;;;;;5418057;26;19996;-58
2024/04/09 08:49:43;;;;;;;0.30;0.13;;;;;;;;;;5418096;26;19996;-58
2024/04/09 08:52:10;;;;;;;0.45;0.30;;;;;;;;;;5418307;26;20117;-58
2024/04/09 08:54:36;;;;;;;0.10;0.10;;;;;;;;;;5418044;26;20076;-58
2024/04/09 08:57:02;;;;;;;0.73;0.20;;;;;;;;;;5418326;26;20000;-58
2024/04/09 08:59:29;;;;;;;0.38;0.28;;;;;;;;;;5418286;26;20430;-58
2024/04/09 09:01:56;;;;;;;0.10;0.10;;;;;;;;;;5417824;26;20007;-57
2024/04/09 09:04:21;;;;;;;0.13;0.10;;;;;;;;;;5417842;26;19996;-58
2024/04/09 09:06:47;;;;;;;0.10;0.08;;;;;;;;;;5418643;26;20444;-58
2024/04/09 09:09:26;;;;;;;0.20;0.10;;;;;;;;;;5418575;26;20006;-58
2024/04/09 09:12:00;;;;;;;0.70;0.35;;;;;;;;;;5417874;26;20003;-58
2024/04/09 09:14:26;;;;;;;0.43;0.15;;;;;;;;;;5417705;26;20002;-58
2024/04/09 09:16:52;;;;;;;0.95;0.32;;;;;;;;;;5418366;26;19999;-58
2024/04/09 09:19:18;;;;;;;0.52;0.22;;;;;;;;;;5417865;26;20067;-58
2024/04/09 09:21:44;;;;;;;0.25;0.10;;;;;;;;;;5420439;26;19992;-56
2024/04/09 09:24:10;;;;;;;2.63;0.20;;;;;;;;;;5421294;26;19991;-58
2024/04/09 09:26:36;;;;;;;1.00;0.40;;;;;;;;;;5420971;26;20461;-58
2024/04/09 09:29:07;;;;;;;0.45;0.10;;;;;;;;;;5421731;26;20023;-58
2024/04/09 09:31:32;;;;;;;0.45;0.10;;;;;;;;;;5421125;26;20002;-58
2024/04/09 09:33:59;;;;;;;0.30;0.13;;;;;;;;;;5420815;26;19995;-58
2024/04/09 09:36:26;;;;;;;0.50;0.20;;;;;;;;;;5420729;26;19999;-58
2024/04/09 09:38:53;;;;;;;1.55;0.32;;;;;;;;;;5421173;26;20097;-58
2024/04/09 09:41:19;;;;;;;3.55;0.20;;;;;;;;;;5420894;26;20006;-58
2024/04/09 09:43:46;;;;;;;0.08;0.00;;;;;;;;;;5420315;26;20068;-58
2024/04/09 09:46:14;;;;;;;0.70;0.20;;;;;;;;;;5420737;26;20441;-58
2024/04/09 09:48:41;;;;;;;0.43;0.10;;;;;;;;;;5421062;26;19996;-58
2024/04/09 09:51:07;;;;;;;0.30;0.13;;;;;;;;;;5420648;26;20325;-56
2024/04/09 09:53:33;;;;;;;0.38;0.15;;;;;;;;;;5420562;26;19995;-58
2024/04/09 09:56:01;;;;;;;0.10;0.10;;;;;;;;;;5420630;26;19999;-58
2024/04/09 09:58:30;;;;;;;0.17;0.10;;;;;;;;;;5421037;26;19999;-57
2024/04/09 10:00:59;;;;;;;0.05;0.00;;;;;;;;;;5420499;26;19991;-57
2024/04/09 10:03:25;;;;;;;0.45;0.20;;;;;;;;;;5420345;26;20004;-58
2024/04/09 10:05:52;;;;;;;0.28;0.13;;;;;;;;;;5421089;26;20069;-57
2024/04/09 10:08:21;;;;;;;0.28;0.10;;;;;;;;;;5420964;26;19992;-58
2024/04/09 10:10:52;;;;;;;0.20;0.20;;;;;;;;;;5420884;26;20318;-58
2024/04/09 10:13:24;;;;;;;0.30;0.10;;;;;;;;;;5420918;26;20098;-58
2024/04/09 10:15:49;;;;;;;0.25;0.10;;;;;;;;;;5420549;26;20007;-58
2024/04/09 10:18:34;;;;;;;1.05;0.30;;;;;;;;;;5420559;26;20421;-58
2024/04/09 10:21:00;;;;;;;0.63;0.20;;;;;;;;;;5420409;26;20013;-58
2024/04/09 10:23:26;;;;;;;0.17;0.10;;;;;;;;;;5420283;26;19991;-58
2024/04/09 10:25:55;;;;;;;0.30;0.17;;;;;;;;;;5420508;26;19999;-58
2024/04/09 10:28:28;;;;;;;2.70;0.30;;;;;;;;;;5420989;26;20000;-58
2024/04/09 10:30:54;;;;;;;0.28;0.10;;;;;;;;;;5420445;26;19999;-58
2024/04/09 10:33:40;;;;;;;0.55;0.20;;;;;;;;;;5419318;26;20056;-58
2024/04/09 10:36:07;;;;;;;1.13;0.20;;;;;;;;;;5420106;26;20449;-58
2024/04/09 10:38:34;;;;;;;0.65;0.30;;;;;;;;;;5420357;26;20010;-58
2024/04/09 10:41:01;;;;;;;1.10;0.20;;;;;;;;;;5420229;26;20445;-58
2024/04/09 10:43:28;;;;;;;0.55;0.08;;;;;;;;;;5419899;26;19995;-57
2024/04/09 10:45:54;;;;;;;0.63;0.15;;;;;;;;;;5420071;26;20023;-56
2024/04/09 10:48:21;;;;;;;0.85;0.35;;;;;;;;;;5420021;26;20001;-58
2024/04/09 10:50:47;;;;;;;0.40;0.20;;;;;;;;;;5419969;26;20035;-58
2024/04/09 10:53:14;;;;;;;0.10;0.00;;;;;;;;;;5419740;26;19996;-58
2024/04/09 10:55:40;;;;;;;0.10;0.10;;;;;;;;;;5419714;26;19992;-58
2024/04/09 10:58:06;;;;;;;0.20;0.10;;;;;;;;;;5419724;26;20010;-58
2024/04/09 11:00:32;;;;;;;0.60;0.20;;;;;;;;;;5419755;26;19999;-57
2024/04/09 11:02:58;;;;;;;0.30;0.03;;;;;;;;;;5419326;26;19991;-59
2024/04/09 11:05:24;;;;;;;0.17;0.10;;;;;;;;;;5419398;26;20010;-57
2024/04/09 11:07:50;;;;;;;0.30;0.10;;;;;;;;;;5419509;26;20000;-57
2024/04/09 11:10:17;;;;;;;0.10;0.10;;;;;;;;;;5419592;26;19995;-58
2024/04/09 11:12:53;;;;;;;1.00;0.40;;;;;;;;;;5419345;26;20038;-58
2024/04/09 11:15:19;;;;;;;0.25;0.10;;;;;;;;;;5419732;26;20043;-58
2024/04/09 11:17:45;;;;;;;0.08;0.08;;;;;;;;;;5419504;26;19999;-58
2024/04/09 11:20:15;;;;;;;0.47;0.20;;;;;;;;;;5419414;26;20057;-58
2024/04/09 11:22:41;;;;;;;0.30;0.13;;;;;;;;;;5419567;26;20067;-58
2024/04/09 11:25:13;;;;;;;0.22;0.10;;;;;;;;;;5419269;26;20241;-58
2024/04/09 11:27:42;;;;;;;0.13;0.10;;;;;;;;;;5419269;26;20325;-58
2024/04/09 11:30:09;;;;;;;0.22;0.10;;;;;;;;;;5419257;26;19995;-57
2024/04/09 11:32:39;;;;;;;0.93;0.20;;;;;;;;;;5419510;26;19995;-58
2024/04/09 11:35:16;;;;;;;0.53;0.20;;;;;;;;;;5419211;26;19996;-58
2024/04/09 11:37:48;;;;;;;0.55;0.20;;;;;;;;;;5419191;26;20023;-56
2024/04/09 11:40:14;;;;;;;0.38;0.20;;;;;;;;;;5419227;26;20008;-58
2024/04/09 11:42:43;;;;;;;0.17;0.00;;;;;;;;;;5418812;26;20000;-55
2024/04/09 11:45:09;;;;;;;0.08;0.00;;;;;;;;;;5419067;26;20072;-58
2024/04/09 11:47:37;;;;;;;0.50;0.10;;;;;;;;;;5419606;26;19999;-58
2024/04/09 11:50:05;;;;;;;0.03;0.03;;;;;;;;;;5419433;26;20325;-57
2024/04/09 11:52:31;;;;;;;0.00;0.00;;;;;;;;;;5418938;26;19996;-58
2024/04/09 11:54:57;;;;;;;0.28;0.10;;;;;;;;;;5418937;26;20437;-57
2024/04/09 11:57:23;;;;;;;0.00;0.00;;;;;;;;;;5419128;26;19996;-56
2024/04/09 11:59:50;;;;;;;0.55;0.20;;;;;;;;;;5418894;26;19999;-56
2024/04/09 12:02:15;;;;;;;1.02;0.40;;;;;;;;;;5418712;26;20000;-58
2024/04/09 12:04:41;;;;;;;1.85;0.30;;;;;;;;;;5419091;26;20006;-57
2024/04/09 12:07:09;;;;;;;0.10;0.03;;;;;;;;;;5418921;26;20003;-58
2024/04/09 12:09:36;;;;;;;3.95;0.15;;;;;;;;;;5418955;26;20429;-58
2024/04/09 12:12:02;;;;;;;1.88;0.20;;;;;;;;;;5419395;26;20069;-58
2024/04/09 12:14:28;;;;;;;1.55;0.20;;;;;;;;;;5419361;26;20430;-58
2024/04/09 12:16:54;;;;;;;0.15;0.10;;;;;;;;;;5418655;26;20064;-58
2024/04/09 12:19:20;;;;;;;0.57;0.30;;;;;;;;;;5418855;26;19995;-57
2024/04/09 12:21:46;;;;;;;0.38;0.20;;;;;;;;;;5418352;26;20080;-58
2024/04/09 12:24:12;;;;;;;0.32;0.13;;;;;;;;;;5418470;26;20003;-57
2024/04/09 12:26:38;;;;;;;2.13;0.32;;;;;;;;;;5418321;26;20063;-58
2024/04/09 12:29:04;;;;;;;0.30;0.15;;;;;;;;;;5418686;26;19999;-58
2024/04/09 12:31:30;;;;;;;0.05;0.00;;;;;;;;;;5418523;26;20003;-58
2024/04/09 12:33:56;;;;;;;0.57;0.25;;;;;;;;;;5418649;26;20383;-57
2024/04/09 12:36:22;;;;;;;0.52;0.10;;;;;;;;;;5418439;26;20064;-58
2024/04/09 12:38:48;;;;;;;0.30;0.10;;;;;;;;;;5419079;26;20413;-58
2024/04/09 12:41:14;;;;;;;0.55;0.22;;;;;;;;;;5419044;26;19995;-58
2024/04/09 12:43:40;;;;;;;0.65;0.20;;;;;;;;;;5418022;26;19992;-58
2024/04/09 12:46:06;;;;;;;0.10;0.10;;;;;;;;;;5418450;26;19999;-58
2024/04/09 12:48:32;;;;;;;5.07;0.28;;;;;;;;;;5418347;26;20010;-56
2024/04/09 12:50:58;;;;;;;1.27;0.38;;;;;;;;;;5418650;26;19991;-56
2024/04/09 12:53:25;;;;;;;0.93;0.20;;;;;;;;;;5418438;26;20452;-54
2024/04/09 12:55:51;;;;;;;0.47;0.25;;;;;;;;;;5417598;26;20010;-56
2024/04/09 12:58:17;;;;;;;2.03;0.43;;;;;;;;;;5418739;26;20444;-57
2024/04/09 13:00:43;;;;;;;0.30;0.10;;;;;;;;;;5418360;26;19999;-57
2024/04/09 13:03:09;;;;;;;0.20;0.10;;;;;;;;;;5417740;26;20010;-58
2024/04/09 13:05:36;;;;;;;0.30;0.17;;;;;;;;;;5417938;26;20004;-59
2024/04/09 13:08:03;;;;;;;0.63;0.20;;;;;;;;;;5417751;26;20441;-58
2024/04/09 13:10:29;;;;;;;0.08;0.08;;;;;;;;;;5417847;26;20007;-58
2024/04/09 13:12:55;;;;;;;1.75;0.20;;;;;;;;;;5417750;26;19995;-58
2024/04/09 13:15:21;;;;;;;0.50;0.20;;;;;;;;;;5417794;26;20007;-58
2024/04/09 13:17:47;;;;;;;0.55;0.20;;;;;;;;;;5417678;26;20390;-58
2024/04/09 13:20:13;;;;;;;0.17;0.08;;;;;;;;;;5417718;26;20000;-58
2024/04/09 13:22:39;;;;;;;0.00;0.00;;;;;;;;;;5417594;26;19999;-58
2024/04/09 13:25:05;;;;;;;2.22;0.10;;;;;;;;;;5417816;26;20317;-57
2024/04/09 13:27:31;;;;;;;0.40;0.20;;;;;;;;;;5417610;26;20517;-57
2024/04/09 13:29:59;;;;;;;0.03;0.03;;;;;;;;;;5417482;26;20423;-59
2024/04/09 13:32:25;;;;;;;3.72;0.30;;;;;;;;;;5417313;26;20072;-58
2024/04/09 13:34:51;;;;;;;0.28;0.13;;;;;;;;;;5417155;26;20034;-58
2024/04/09 13:37:17;;;;;;;0.38;0.20;;;;;;;;;;5417349;26;19991;-58
2024/04/09 13:39:43;;;;;;;2.72;0.47;;;;;;;;;;5417316;26;20433;-57
2024/04/09 13:42:09;;;;;;;0.22;0.10;;;;;;;;;;5417425;26;19999;-58
2024/04/09 13:44:35;;;;;;;2.63;0.50;;;;;;;;;;5417175;26;20325;-58
2024/04/09 13:47:01;;;;;;;0.40;0.10;;;;;;;;;;5417098;26;20006;-59
2024/04/09 13:49:27;;;;;;;0.77;0.22;;;;;;;;;;5417629;26;20009;-56
2024/04/09 13:51:53;;;;;;;0.40;0.10;;;;;;;;;;5417229;26;19995;-56
2024/04/09 13:54:19;;;;;;;1.75;0.10;;;;;;;;;;5416731;26;20000;-56
2024/04/09 13:56:45;;;;;;;0.25;0.20;;;;;;;;;;5417167;26;20006;-56
2024/04/09 13:59:11;;;;;;;0.45;0.13;;;;;;;;;;5416861;26;20031;-57
2024/04/09 14:01:37;;;;;;;0.47;0.20;;;;;;;;;;5416893;26;19996;-57
2024/04/09 14:04:03;;;;;;;0.55;0.10;;;;;;;;;;5416341;26;20349;-53
2024/04/09 14:06:30;;;;;;;0.22;0.10;;;;;;;;;;5416733;26;20501;-57
2024/04/09 14:08:55;;;;;;;0.13;0.10;;;;;;;;;;5419864;26;20004;-55
2024/04/09 14:11:22;;;;;;;0.03;0.00;;;;;;;;;;5420290;26;19995;-57
2024/04/09 14:13:50;;;;;;;1.23;0.40;;;;;;;;;;5420500;26;20017;-57
2024/04/09 14:16:16;;;;;;;0.05;0.05;;;;;;;;;;5420437;26;20069;-57
2024/04/09 14:18:42;;;;;;;2.15;0.20;;;;;;;;;;5420741;26;19991;-57
2024/04/09 14:21:08;;;;;;;0.25;0.08;;;;;;;;;;5420265;26;20005;-57
2024/04/09 14:23:37;;;;;;;0.10;0.00;;;;;;;;;;5420216;26;20468;-57
2024/04/09 14:26:04;;;;;;;1.17;0.45;;;;;;;;;;5420570;26;20015;-55
2024/04/09 14:28:30;;;;;;;0.90;0.28;;;;;;;;;;5420077;26;20043;-56
2024/04/09 14:30:56;;;;;;;0.55;0.20;;;;;;;;;;5420393;26;20430;-56
2024/04/09 14:33:25;;;;;;;3.45;0.30;;;;;;;;;;5420018;26;20000;-57
2024/04/09 14:35:51;;;;;;;0.50;0.20;;;;;;;;;;5420256;26;20002;-58
2024/04/09 14:38:18;;;;;;;0.20;0.10;;;;;;;;;;5419769;26;19992;-56
2024/04/09 14:40:47;;;;;;;0.35;0.15;;;;;;;;;;5419692;26;20072;-58